sensor_id;sensor_type;location;lat;lon;timestamp;P1;durP1;ratioP1;P2;durP2;ratioP2
151;SDS011;68;48.792;9.164;2023-08-31T00:02:20;46.55;;;37.13;;
151;SDS011;68;48.792;9.164;2023-08-31T00:04:47;39.55;;;27.17;;
151;SDS011;68;48.792;9.164;2023-08-31T00:07:16;42.70;;;33.80;;
151;SDS011;68;48.792;9.164;2023-08-31T00:09:43;37.10;;;27.52;;
151;SDS011;68;48.792;9.164;2023-08-31T00:12:10;42.42;;;34.13;;
151;SDS011;68;48.792;9.164;2023-08-31T00:14:37;49.15;;;39.13;;
151;SDS011;68;48.792;9.164;2023-08-31T00:17:05;47.97;;;38.75;;
151;SDS011;68;48.792;9.164;2023-08-31T00:19:32;46.72;;;37.97;;
151;SDS011;68;48.792;9.164;2023-08-31T00:21:59;43.85;;;35.75;;
151;SDS011;68;48.792;9.164;2023-08-31T00:24:26;44.30;;;33.20;;
151;SDS011;68;48.792;9.164;2023-08-31T00:26:56;46.97;;;38.95;;
151;SDS011;68;48.792;9.164;2023-08-31T00:29:23;41.42;;;29.92;;
151;SDS011;68;48.792;9.164;2023-08-31T00:31:50;41.60;;;31.17;;
151;SDS011;68;48.792;9.164;2023-08-31T00:34:19;41.03;;;30.67;;
151;SDS011;68;48.792;9.164;2023-08-31T00:36:46;45.63;;;34.75;;
151;SDS011;68;48.792;9.164;2023-08-31T00:39:13;48.28;;;38.90;;
151;SDS011;68;48.792;9.164;2023-08-31T00:41:42;51.97;;;42.10;;
151;SDS011;68;48.792;9.164;2023-08-31T00:44:11;53.97;;;39.83;;
151;SDS011;68;48.792;9.164;2023-08-31T00:46:40;61.17;;;48.40;;
151;SDS011;68;48.792;9.164;2023-08-31T00:49:07;41.40;;;31.23;;
151;SDS011;68;48.792;9.164;2023-08-31T00:51:36;48.67;;;40.72;;
151;SDS011;68;48.792;9.164;2023-08-31T00:54:03;49.83;;;38.53;;
151;SDS011;68;48.792;9.164;2023-08-31T00:56:31;52.65;;;44.33;;
151;SDS011;68;48.792;9.164;2023-08-31T00:58:58;49.83;;;39.40;;
151;SDS011;68;48.792;9.164;2023-08-31T01:01:25;47.83;;;39.83;;
151;SDS011;68;48.792;9.164;2023-08-31T01:04:03;46.13;;;37.33;;
151;SDS011;68;48.792;9.164;2023-08-31T01:06:46;49.90;;;38.38;;
151;SDS011;68;48.792;9.164;2023-08-31T01:09:21;48.33;;;37.55;;
151;SDS011;68;48.792;9.164;2023-08-31T01:11:57;41.25;;;29.33;;
151;SDS011;68;48.792;9.164;2023-08-31T01:14:31;53.90;;;42.22;;
151;SDS011;68;48.792;9.164;2023-08-31T01:17:00;47.15;;;36.85;;
151;SDS011;68;48.792;9.164;2023-08-31T01:19:31;49.25;;;35.45;;
151;SDS011;68;48.792;9.164;2023-08-31T01:22:16;51.38;;;40.03;;
151;SDS011;68;48.792;9.164;2023-08-31T01:24:52;48.28;;;38.80;;
151;SDS011;68;48.792;9.164;2023-08-31T01:27:19;49.50;;;40.20;;
151;SDS011;68;48.792;9.164;2023-08-31T01:29:46;49.30;;;39.92;;
151;SDS011;68;48.792;9.164;2023-08-31T01:32:13;57.10;;;48.53;;
151;SDS011;68;48.792;9.164;2023-08-31T01:34:40;54.60;;;45.83;;
151;SDS011;68;48.792;9.164;2023-08-31T01:37:08;55.53;;;48.72;;
151;SDS011;68;48.792;9.164;2023-08-31T01:39:41;58.58;;;51.15;;
151;SDS011;68;48.792;9.164;2023-08-31T01:42:15;48.40;;;37.80;;
151;SDS011;68;48.792;9.164;2023-08-31T01:44:42;57.83;;;50.83;;
151;SDS011;68;48.792;9.164;2023-08-31T01:47:14;47.17;;;36.63;;
151;SDS011;68;48.792;9.164;2023-08-31T01:49:44;55.72;;;44.95;;
151;SDS011;68;48.792;9.164;2023-08-31T01:52:11;52.58;;;40.50;;
151;SDS011;68;48.792;9.164;2023-08-31T01:54:38;56.10;;;49.72;;
151;SDS011;68;48.792;9.164;2023-08-31T01:57:04;57.97;;;47.80;;
151;SDS011;68;48.792;9.164;2023-08-31T01:59:33;48.92;;;40.75;;
151;SDS011;68;48.792;9.164;2023-08-31T02:02:00;45.50;;;33.90;;
151;SDS011;68;48.792;9.164;2023-08-31T02:04:27;44.00;;;35.53;;
151;SDS011;68;48.792;9.164;2023-08-31T02:06:54;56.03;;;49.00;;
151;SDS011;68;48.792;9.164;2023-08-31T02:09:20;44.42;;;34.17;;
151;SDS011;68;48.792;9.164;2023-08-31T02:11:47;50.90;;;39.40;;
151;SDS011;68;48.792;9.164;2023-08-31T02:14:14;60.88;;;53.22;;
151;SDS011;68;48.792;9.164;2023-08-31T02:16:42;46.05;;;36.38;;
151;SDS011;68;48.792;9.164;2023-08-31T02:19:09;59.03;;;46.22;;
151;SDS011;68;48.792;9.164;2023-08-31T02:21:36;47.83;;;37.78;;
151;SDS011;68;48.792;9.164;2023-08-31T02:24:03;49.72;;;40.30;;
151;SDS011;68;48.792;9.164;2023-08-31T02:26:31;48.70;;;39.15;;
151;SDS011;68;48.792;9.164;2023-08-31T02:28:57;44.55;;;37.03;;
151;SDS011;68;48.792;9.164;2023-08-31T02:31:24;52.75;;;41.70;;
151;SDS011;68;48.792;9.164;2023-08-31T02:33:52;46.80;;;37.17;;
151;SDS011;68;48.792;9.164;2023-08-31T02:36:19;53.40;;;41.03;;
151;SDS011;68;48.792;9.164;2023-08-31T02:38:46;46.80;;;37.08;;
151;SDS011;68;48.792;9.164;2023-08-31T02:41:14;52.97;;;40.97;;
151;SDS011;68;48.792;9.164;2023-08-31T02:43:41;43.90;;;33.03;;
151;SDS011;68;48.792;9.164;2023-08-31T02:46:08;53.45;;;43.83;;
151;SDS011;68;48.792;9.164;2023-08-31T02:48:35;50.55;;;38.35;;
151;SDS011;68;48.792;9.164;2023-08-31T02:51:03;46.15;;;35.97;;
151;SDS011;68;48.792;9.164;2023-08-31T02:53:30;52.15;;;38.33;;
151;SDS011;68;48.792;9.164;2023-08-31T02:55:57;45.45;;;38.03;;
151;SDS011;68;48.792;9.164;2023-08-31T02:58:24;48.78;;;39.67;;
151;SDS011;68;48.792;9.164;2023-08-31T03:00:50;46.63;;;33.05;;
151;SDS011;68;48.792;9.164;2023-08-31T03:03:18;39.30;;;28.63;;
151;SDS011;68;48.792;9.164;2023-08-31T03:05:45;46.58;;;39.35;;
151;SDS011;68;48.792;9.164;2023-08-31T03:08:13;43.90;;;33.92;;
151;SDS011;68;48.792;9.164;2023-08-31T03:10:40;49.75;;;40.80;;
151;SDS011;68;48.792;9.164;2023-08-31T03:13:06;45.53;;;35.30;;
151;SDS011;68;48.792;9.164;2023-08-31T03:15:33;48.92;;;39.67;;
151;SDS011;68;48.792;9.164;2023-08-31T03:18:00;53.72;;;43.67;;
151;SDS011;68;48.792;9.164;2023-08-31T03:20:27;50.63;;;41.70;;
151;SDS011;68;48.792;9.164;2023-08-31T03:22:54;47.08;;;37.03;;
151;SDS011;68;48.792;9.164;2023-08-31T03:25:22;49.17;;;39.95;;
151;SDS011;68;48.792;9.164;2023-08-31T03:27:49;45.25;;;37.10;;
151;SDS011;68;48.792;9.164;2023-08-31T03:30:16;49.25;;;37.92;;
151;SDS011;68;48.792;9.164;2023-08-31T03:32:42;52.15;;;41.03;;
151;SDS011;68;48.792;9.164;2023-08-31T03:35:09;58.97;;;46.45;;
151;SDS011;68;48.792;9.164;2023-08-31T03:37:36;42.92;;;34.30;;
151;SDS011;68;48.792;9.164;2023-08-31T03:40:04;48.25;;;39.58;;
151;SDS011;68;48.792;9.164;2023-08-31T03:42:33;53.40;;;41.90;;
151;SDS011;68;48.792;9.164;2023-08-31T03:45:00;48.95;;;40.25;;
151;SDS011;68;48.792;9.164;2023-08-31T03:47:26;53.58;;;43.88;;
151;SDS011;68;48.792;9.164;2023-08-31T03:49:53;52.58;;;43.28;;
151;SDS011;68;48.792;9.164;2023-08-31T03:52:20;45.72;;;40.10;;
151;SDS011;68;48.792;9.164;2023-08-31T03:54:47;54.40;;;44.47;;
151;SDS011;68;48.792;9.164;2023-08-31T03:57:15;51.72;;;44.50;;
151;SDS011;68;48.792;9.164;2023-08-31T03:59:43;52.13;;;41.17;;
151;SDS011;68;48.792;9.164;2023-08-31T04:02:10;54.92;;;41.50;;
151;SDS011;68;48.792;9.164;2023-08-31T04:04:36;51.33;;;40.90;;
151;SDS011;68;48.792;9.164;2023-08-31T04:07:03;44.97;;;34.65;;
151;SDS011;68;48.792;9.164;2023-08-31T04:09:31;46.60;;;38.70;;
151;SDS011;68;48.792;9.164;2023-08-31T04:11:58;54.65;;;43.15;;
151;SDS011;68;48.792;9.164;2023-08-31T04:14:25;49.20;;;39.90;;
151;SDS011;68;48.792;9.164;2023-08-31T04:16:53;49.53;;;40.00;;
151;SDS011;68;48.792;9.164;2023-08-31T04:19:20;48.00;;;37.67;;
151;SDS011;68;48.792;9.164;2023-08-31T04:21:46;45.33;;;36.17;;
151;SDS011;68;48.792;9.164;2023-08-31T04:24:13;57.65;;;47.83;;
151;SDS011;68;48.792;9.164;2023-08-31T04:26:40;53.88;;;44.97;;
151;SDS011;68;48.792;9.164;2023-08-31T04:29:07;53.10;;;46.08;;
151;SDS011;68;48.792;9.164;2023-08-31T04:31:33;57.15;;;45.90;;
151;SDS011;68;48.792;9.164;2023-08-31T04:34:02;41.22;;;29.98;;
151;SDS011;68;48.792;9.164;2023-08-31T04:36:29;54.55;;;46.78;;
151;SDS011;68;48.792;9.164;2023-08-31T04:38:56;52.42;;;43.80;;
151;SDS011;68;48.792;9.164;2023-08-31T04:41:23;54.70;;;43.97;;
151;SDS011;68;48.792;9.164;2023-08-31T04:43:50;47.20;;;40.70;;
151;SDS011;68;48.792;9.164;2023-08-31T04:46:16;54.90;;;45.63;;
151;SDS011;68;48.792;9.164;2023-08-31T04:48:43;53.85;;;43.83;;
151;SDS011;68;48.792;9.164;2023-08-31T04:53:57;52.35;;;44.38;;
151;SDS011;68;48.792;9.164;2023-08-31T04:56:30;54.78;;;48.47;;
151;SDS011;68;48.792;9.164;2023-08-31T04:58:58;55.80;;;41.70;;
151;SDS011;68;48.792;9.164;2023-08-31T05:01:28;49.95;;;41.55;;
151;SDS011;68;48.792;9.164;2023-08-31T05:03:55;48.53;;;39.47;;
151;SDS011;68;48.792;9.164;2023-08-31T05:06:22;53.30;;;42.30;;
151;SDS011;68;48.792;9.164;2023-08-31T05:08:51;54.97;;;46.72;;
151;SDS011;68;48.792;9.164;2023-08-31T05:11:24;47.88;;;39.72;;
151;SDS011;68;48.792;9.164;2023-08-31T05:13:51;62.13;;;54.47;;
151;SDS011;68;48.792;9.164;2023-08-31T05:16:18;57.63;;;52.45;;
151;SDS011;68;48.792;9.164;2023-08-31T05:18:45;66.85;;;63.42;;
151;SDS011;68;48.792;9.164;2023-08-31T05:21:11;71.63;;;60.63;;
151;SDS011;68;48.792;9.164;2023-08-31T05:23:38;59.13;;;51.05;;
151;SDS011;68;48.792;9.164;2023-08-31T05:26:06;59.75;;;53.42;;
151;SDS011;68;48.792;9.164;2023-08-31T05:28:33;62.33;;;55.20;;
151;SDS011;68;48.792;9.164;2023-08-31T05:31:00;56.80;;;48.67;;
151;SDS011;68;48.792;9.164;2023-08-31T05:33:28;65.97;;;55.30;;
151;SDS011;68;48.792;9.164;2023-08-31T05:35:59;58.58;;;48.83;;
151;SDS011;68;48.792;9.164;2023-08-31T05:38:28;50.38;;;41.88;;
151;SDS011;68;48.792;9.164;2023-08-31T05:41:02;55.97;;;37.97;;
151;SDS011;68;48.792;9.164;2023-08-31T05:43:32;60.17;;;53.50;;
151;SDS011;68;48.792;9.164;2023-08-31T05:45:59;56.92;;;44.63;;
151;SDS011;68;48.792;9.164;2023-08-31T05:48:25;48.70;;;38.40;;
151;SDS011;68;48.792;9.164;2023-08-31T05:50:53;58.70;;;48.55;;
151;SDS011;68;48.792;9.164;2023-08-31T05:53:20;43.67;;;35.20;;
151;SDS011;68;48.792;9.164;2023-08-31T05:55:47;44.53;;;31.77;;
151;SDS011;68;48.792;9.164;2023-08-31T05:58:13;67.60;;;56.90;;
151;SDS011;68;48.792;9.164;2023-08-31T06:00:42;41.80;;;32.20;;
151;SDS011;68;48.792;9.164;2023-08-31T06:03:08;53.95;;;43.58;;
151;SDS011;68;48.792;9.164;2023-08-31T06:05:36;57.53;;;49.70;;
151;SDS011;68;48.792;9.164;2023-08-31T06:08:03;50.50;;;38.70;;
151;SDS011;68;48.792;9.164;2023-08-31T06:10:30;54.35;;;43.72;;
151;SDS011;68;48.792;9.164;2023-08-31T06:12:57;50.35;;;40.15;;
151;SDS011;68;48.792;9.164;2023-08-31T06:15:24;59.88;;;52.75;;
151;SDS011;68;48.792;9.164;2023-08-31T06:17:52;51.47;;;40.97;;
151;SDS011;68;48.792;9.164;2023-08-31T06:20:19;58.47;;;50.25;;
151;SDS011;68;48.792;9.164;2023-08-31T06:22:45;51.38;;;40.35;;
151;SDS011;68;48.792;9.164;2023-08-31T06:25:12;49.60;;;40.35;;
151;SDS011;68;48.792;9.164;2023-08-31T06:27:41;60.28;;;52.05;;
151;SDS011;68;48.792;9.164;2023-08-31T06:30:08;45.70;;;36.10;;
151;SDS011;68;48.792;9.164;2023-08-31T06:32:40;44.63;;;33.42;;
151;SDS011;68;48.792;9.164;2023-08-31T06:35:09;50.75;;;37.80;;
151;SDS011;68;48.792;9.164;2023-08-31T06:37:36;56.00;;;45.83;;
151;SDS011;68;48.792;9.164;2023-08-31T06:40:04;49.13;;;36.00;;
151;SDS011;68;48.792;9.164;2023-08-31T06:42:31;50.20;;;40.35;;
151;SDS011;68;48.792;9.164;2023-08-31T06:44:58;54.90;;;44.10;;
151;SDS011;68;48.792;9.164;2023-08-31T06:47:25;42.00;;;35.67;;
151;SDS011;68;48.792;9.164;2023-08-31T06:49:51;56.53;;;49.03;;
151;SDS011;68;48.792;9.164;2023-08-31T06:52:20;51.33;;;38.20;;
151;SDS011;68;48.792;9.164;2023-08-31T06:54:47;50.85;;;36.28;;
151;SDS011;68;48.792;9.164;2023-08-31T06:57:13;52.75;;;41.17;;
151;SDS011;68;48.792;9.164;2023-08-31T06:59:40;61.47;;;46.13;;
151;SDS011;68;48.792;9.164;2023-08-31T07:02:07;55.60;;;32.88;;
151;SDS011;68;48.792;9.164;2023-08-31T07:04:34;46.30;;;34.45;;
151;SDS011;68;48.792;9.164;2023-08-31T07:07:01;52.15;;;36.90;;
151;SDS011;68;48.792;9.164;2023-08-31T07:09:29;49.08;;;36.72;;
151;SDS011;68;48.792;9.164;2023-08-31T07:11:56;42.28;;;30.67;;
151;SDS011;68;48.792;9.164;2023-08-31T07:14:23;45.42;;;35.13;;
151;SDS011;68;48.792;9.164;2023-08-31T07:16:51;46.92;;;27.77;;
151;SDS011;68;48.792;9.164;2023-08-31T07:19:17;42.10;;;27.95;;
151;SDS011;68;48.792;9.164;2023-08-31T07:21:44;39.05;;;29.23;;
151;SDS011;68;48.792;9.164;2023-08-31T07:24:12;46.22;;;32.67;;
151;SDS011;68;48.792;9.164;2023-08-31T07:26:40;45.83;;;30.38;;
151;SDS011;68;48.792;9.164;2023-08-31T07:29:07;48.90;;;35.70;;
151;SDS011;68;48.792;9.164;2023-08-31T07:31:34;44.80;;;27.25;;
151;SDS011;68;48.792;9.164;2023-08-31T07:34:01;39.20;;;26.58;;
151;SDS011;68;48.792;9.164;2023-08-31T07:36:28;46.50;;;35.75;;
151;SDS011;68;48.792;9.164;2023-08-31T07:38:55;40.15;;;22.33;;
151;SDS011;68;48.792;9.164;2023-08-31T07:41:22;44.47;;;27.00;;
151;SDS011;68;48.792;9.164;2023-08-31T07:43:51;36.15;;;24.88;;
151;SDS011;68;48.792;9.164;2023-08-31T07:46:17;40.95;;;30.63;;
151;SDS011;68;48.792;9.164;2023-08-31T07:48:44;37.58;;;24.27;;
151;SDS011;68;48.792;9.164;2023-08-31T07:51:13;44.85;;;26.30;;
151;SDS011;68;48.792;9.164;2023-08-31T07:53:40;40.30;;;25.75;;
151;SDS011;68;48.792;9.164;2023-08-31T07:56:07;36.45;;;22.80;;
151;SDS011;68;48.792;9.164;2023-08-31T07:58:33;42.38;;;22.70;;
151;SDS011;68;48.792;9.164;2023-08-31T08:01:01;32.75;;;19.92;;
151;SDS011;68;48.792;9.164;2023-08-31T08:03:30;31.98;;;19.30;;
151;SDS011;68;48.792;9.164;2023-08-31T08:05:56;34.17;;;21.67;;
151;SDS011;68;48.792;9.164;2023-08-31T08:08:23;36.20;;;23.85;;
151;SDS011;68;48.792;9.164;2023-08-31T08:10:51;38.50;;;24.48;;
151;SDS011;68;48.792;9.164;2023-08-31T08:13:18;34.97;;;20.58;;
151;SDS011;68;48.792;9.164;2023-08-31T08:15:45;34.92;;;19.15;;
151;SDS011;68;48.792;9.164;2023-08-31T08:18:13;36.72;;;20.15;;
151;SDS011;68;48.792;9.164;2023-08-31T08:20:40;38.10;;;22.30;;
151;SDS011;68;48.792;9.164;2023-08-31T08:23:07;38.75;;;24.35;;
151;SDS011;68;48.792;9.164;2023-08-31T08:25:34;36.33;;;19.55;;
151;SDS011;68;48.792;9.164;2023-08-31T08:28:00;36.20;;;22.73;;
151;SDS011;68;48.792;9.164;2023-08-31T08:30:28;36.85;;;21.45;;
151;SDS011;68;48.792;9.164;2023-08-31T08:32:55;41.33;;;25.83;;
151;SDS011;68;48.792;9.164;2023-08-31T08:35:23;32.95;;;18.52;;
151;SDS011;68;48.792;9.164;2023-08-31T08:37:50;38.22;;;23.23;;
151;SDS011;68;48.792;9.164;2023-08-31T08:40:18;35.47;;;22.30;;
151;SDS011;68;48.792;9.164;2023-08-31T08:42:46;39.38;;;22.98;;
151;SDS011;68;48.792;9.164;2023-08-31T08:45:13;36.08;;;22.17;;
151;SDS011;68;48.792;9.164;2023-08-31T08:47:42;32.33;;;18.13;;
151;SDS011;68;48.792;9.164;2023-08-31T08:50:09;32.28;;;18.08;;
151;SDS011;68;48.792;9.164;2023-08-31T08:52:39;33.42;;;19.52;;
151;SDS011;68;48.792;9.164;2023-08-31T08:55:06;35.30;;;21.73;;
151;SDS011;68;48.792;9.164;2023-08-31T08:57:34;35.85;;;18.77;;
151;SDS011;68;48.792;9.164;2023-08-31T09:00:01;35.40;;;23.17;;
151;SDS011;68;48.792;9.164;2023-08-31T09:02:29;33.05;;;18.25;;
151;SDS011;68;48.792;9.164;2023-08-31T09:04:56;35.50;;;22.27;;
151;SDS011;68;48.792;9.164;2023-08-31T09:07:23;34.00;;;20.67;;
151;SDS011;68;48.792;9.164;2023-08-31T09:09:52;35.00;;;19.70;;
151;SDS011;68;48.792;9.164;2023-08-31T09:12:21;37.00;;;19.40;;
151;SDS011;68;48.792;9.164;2023-08-31T09:14:58;40.85;;;21.73;;
151;SDS011;68;48.792;9.164;2023-08-31T09:17:25;32.13;;;17.00;;
151;SDS011;68;48.792;9.164;2023-08-31T09:19:58;36.85;;;19.30;;
151;SDS011;68;48.792;9.164;2023-08-31T09:22:28;32.03;;;19.60;;
151;SDS011;68;48.792;9.164;2023-08-31T09:24:56;33.80;;;19.65;;
151;SDS011;68;48.792;9.164;2023-08-31T09:27:23;36.17;;;19.85;;
151;SDS011;68;48.792;9.164;2023-08-31T09:29:50;32.72;;;17.08;;
151;SDS011;68;48.792;9.164;2023-08-31T09:32:20;33.65;;;19.45;;
151;SDS011;68;48.792;9.164;2023-08-31T09:34:47;31.98;;;16.55;;
151;SDS011;68;48.792;9.164;2023-08-31T09:37:15;35.60;;;21.60;;
151;SDS011;68;48.792;9.164;2023-08-31T09:39:42;37.10;;;20.57;;
151;SDS011;68;48.792;9.164;2023-08-31T09:42:10;37.97;;;22.20;;
151;SDS011;68;48.792;9.164;2023-08-31T09:44:39;32.00;;;17.47;;
151;SDS011;68;48.792;9.164;2023-08-31T09:47:08;29.83;;;17.00;;
151;SDS011;68;48.792;9.164;2023-08-31T09:49:35;34.80;;;14.23;;
151;SDS011;68;48.792;9.164;2023-08-31T09:52:04;32.37;;;17.07;;
151;SDS011;68;48.792;9.164;2023-08-31T09:54:33;31.67;;;16.20;;
151;SDS011;68;48.792;9.164;2023-08-31T09:57:01;32.37;;;15.70;;
151;SDS011;68;48.792;9.164;2023-08-31T09:59:30;33.33;;;17.87;;
151;SDS011;68;48.792;9.164;2023-08-31T10:01:59;27.00;;;13.43;;
151;SDS011;68;48.792;9.164;2023-08-31T10:04:28;31.63;;;15.45;;
151;SDS011;68;48.792;9.164;2023-08-31T10:06:57;32.70;;;18.08;;
151;SDS011;68;48.792;9.164;2023-08-31T10:09:24;29.57;;;15.40;;
151;SDS011;68;48.792;9.164;2023-08-31T10:11:52;32.03;;;15.97;;
151;SDS011;68;48.792;9.164;2023-08-31T10:14:20;30.70;;;13.90;;
151;SDS011;68;48.792;9.164;2023-08-31T10:16:49;29.67;;;15.47;;
151;SDS011;68;48.792;9.164;2023-08-31T10:19:17;44.00;;;17.27;;
151;SDS011;68;48.792;9.164;2023-08-31T10:21:44;29.88;;;13.13;;
151;SDS011;68;48.792;9.164;2023-08-31T10:24:11;40.90;;;16.03;;
151;SDS011;68;48.792;9.164;2023-08-31T10:26:38;28.97;;;14.90;;
151;SDS011;68;48.792;9.164;2023-08-31T10:29:04;30.83;;;12.17;;
151;SDS011;68;48.792;9.164;2023-08-31T10:31:31;35.17;;;14.57;;
151;SDS011;68;48.792;9.164;2023-08-31T10:34:01;31.20;;;14.00;;
151;SDS011;68;48.792;9.164;2023-08-31T10:36:36;32.70;;;15.50;;
151;SDS011;68;48.792;9.164;2023-08-31T10:39:10;27.33;;;12.17;;
151;SDS011;68;48.792;9.164;2023-08-31T10:41:41;30.77;;;13.87;;
151;SDS011;68;48.792;9.164;2023-08-31T10:44:18;28.20;;;13.57;;
151;SDS011;68;48.792;9.164;2023-08-31T10:46:45;31.17;;;14.80;;
151;SDS011;68;48.792;9.164;2023-08-31T10:49:14;37.27;;;13.30;;
151;SDS011;68;48.792;9.164;2023-08-31T10:51:43;28.90;;;14.40;;
151;SDS011;68;48.792;9.164;2023-08-31T10:54:12;27.70;;;12.10;;
151;SDS011;68;48.792;9.164;2023-08-31T10:57:02;30.10;;;14.53;;
151;SDS011;68;48.792;9.164;2023-08-31T10:59:44;30.87;;;15.00;;
151;SDS011;68;48.792;9.164;2023-08-31T11:02:33;29.67;;;13.63;;
151;SDS011;68;48.792;9.164;2023-08-31T11:05:04;33.50;;;15.27;;
151;SDS011;68;48.792;9.164;2023-08-31T11:07:33;31.70;;;14.30;;
151;SDS011;68;48.792;9.164;2023-08-31T11:10:08;31.27;;;15.50;;
151;SDS011;68;48.792;9.164;2023-08-31T11:12:36;28.07;;;13.57;;
151;SDS011;68;48.792;9.164;2023-08-31T11:15:03;34.43;;;12.93;;
151;SDS011;68;48.792;9.164;2023-08-31T11:17:31;31.60;;;15.43;;
151;SDS011;68;48.792;9.164;2023-08-31T11:19:58;30.03;;;14.27;;
151;SDS011;68;48.792;9.164;2023-08-31T11:22:27;32.40;;;14.53;;
151;SDS011;68;48.792;9.164;2023-08-31T11:24:54;29.87;;;15.57;;
151;SDS011;68;48.792;9.164;2023-08-31T11:27:22;33.97;;;14.40;;
151;SDS011;68;48.792;9.164;2023-08-31T11:29:49;28.30;;;12.43;;
151;SDS011;68;48.792;9.164;2023-08-31T11:32:16;29.33;;;11.97;;
151;SDS011;68;48.792;9.164;2023-08-31T11:34:43;28.37;;;11.97;;
151;SDS011;68;48.792;9.164;2023-08-31T11:37:11;31.83;;;11.20;;
151;SDS011;68;48.792;9.164;2023-08-31T11:39:43;28.87;;;11.07;;
151;SDS011;68;48.792;9.164;2023-08-31T11:42:15;30.77;;;12.17;;
151;SDS011;68;48.792;9.164;2023-08-31T11:44:43;38.23;;;12.90;;
151;SDS011;68;48.792;9.164;2023-08-31T11:47:11;31.73;;;13.50;;
151;SDS011;68;48.792;9.164;2023-08-31T11:49:39;30.67;;;13.40;;
151;SDS011;68;48.792;9.164;2023-08-31T11:52:06;30.43;;;12.43;;
151;SDS011;68;48.792;9.164;2023-08-31T11:54:36;35.30;;;13.90;;
151;SDS011;68;48.792;9.164;2023-08-31T11:57:06;29.50;;;13.17;;
151;SDS011;68;48.792;9.164;2023-08-31T11:59:34;33.37;;;13.10;;
151;SDS011;68;48.792;9.164;2023-08-31T12:02:01;34.80;;;13.20;;
151;SDS011;68;48.792;9.164;2023-08-31T12:04:31;28.80;;;13.30;;
151;SDS011;68;48.792;9.164;2023-08-31T12:07:00;28.17;;;11.87;;
151;SDS011;68;48.792;9.164;2023-08-31T12:09:28;31.00;;;11.60;;
151;SDS011;68;48.792;9.164;2023-08-31T12:11:55;30.77;;;14.13;;
151;SDS011;68;48.792;9.164;2023-08-31T12:14:24;31.20;;;13.83;;
151;SDS011;68;48.792;9.164;2023-08-31T12:16:52;34.87;;;15.17;;
151;SDS011;68;48.792;9.164;2023-08-31T12:19:27;27.83;;;12.90;;
151;SDS011;68;48.792;9.164;2023-08-31T12:21:54;27.90;;;10.70;;
151;SDS011;68;48.792;9.164;2023-08-31T12:24:21;27.13;;;10.70;;
151;SDS011;68;48.792;9.164;2023-08-31T12:26:48;28.00;;;8.97;;
151;SDS011;68;48.792;9.164;2023-08-31T12:29:15;27.57;;;10.80;;
151;SDS011;68;48.792;9.164;2023-08-31T12:31:44;26.70;;;10.00;;
151;SDS011;68;48.792;9.164;2023-08-31T12:34:10;35.93;;;8.60;;
151;SDS011;68;48.792;9.164;2023-08-31T12:36:37;28.50;;;8.77;;
151;SDS011;68;48.792;9.164;2023-08-31T12:39:06;26.43;;;9.13;;
151;SDS011;68;48.792;9.164;2023-08-31T12:41:34;26.97;;;7.60;;
151;SDS011;68;48.792;9.164;2023-08-31T12:44:01;34.80;;;7.67;;
151;SDS011;68;48.792;9.164;2023-08-31T12:46:29;27.23;;;9.80;;
151;SDS011;68;48.792;9.164;2023-08-31T12:48:59;32.03;;;10.13;;
151;SDS011;68;48.792;9.164;2023-08-31T12:51:26;26.07;;;7.10;;
151;SDS011;68;48.792;9.164;2023-08-31T12:53:54;26.07;;;8.30;;
151;SDS011;68;48.792;9.164;2023-08-31T12:56:21;31.90;;;12.63;;
151;SDS011;68;48.792;9.164;2023-08-31T12:58:48;30.90;;;9.77;;
151;SDS011;68;48.792;9.164;2023-08-31T13:01:16;29.37;;;12.90;;
151;SDS011;68;48.792;9.164;2023-08-31T13:03:43;29.53;;;14.37;;
151;SDS011;68;48.792;9.164;2023-08-31T13:06:11;32.70;;;13.40;;
151;SDS011;68;48.792;9.164;2023-08-31T13:08:38;32.50;;;10.70;;
151;SDS011;68;48.792;9.164;2023-08-31T13:11:05;33.30;;;13.53;;
151;SDS011;68;48.792;9.164;2023-08-31T13:13:32;29.57;;;13.27;;
151;SDS011;68;48.792;9.164;2023-08-31T13:15:59;28.07;;;11.27;;
151;SDS011;68;48.792;9.164;2023-08-31T13:18:25;27.63;;;11.80;;
151;SDS011;68;48.792;9.164;2023-08-31T13:20:53;30.00;;;12.80;;
151;SDS011;68;48.792;9.164;2023-08-31T13:23:22;27.70;;;12.07;;
151;SDS011;68;48.792;9.164;2023-08-31T13:25:49;29.80;;;13.17;;
151;SDS011;68;48.792;9.164;2023-08-31T13:28:16;30.13;;;11.77;;
151;SDS011;68;48.792;9.164;2023-08-31T13:30:44;28.97;;;12.97;;
151;SDS011;68;48.792;9.164;2023-08-31T13:33:11;36.60;;;10.77;;
151;SDS011;68;48.792;9.164;2023-08-31T13:35:38;27.70;;;10.60;;
151;SDS011;68;48.792;9.164;2023-08-31T13:38:05;26.00;;;8.13;;
151;SDS011;68;48.792;9.164;2023-08-31T13:40:34;32.03;;;11.47;;
151;SDS011;68;48.792;9.164;2023-08-31T13:43:02;28.67;;;10.00;;
151;SDS011;68;48.792;9.164;2023-08-31T13:45:29;28.23;;;10.33;;
151;SDS011;68;48.792;9.164;2023-08-31T13:47:56;29.37;;;11.43;;
151;SDS011;68;48.792;9.164;2023-08-31T13:50:24;27.50;;;11.57;;
151;SDS011;68;48.792;9.164;2023-08-31T13:52:52;29.13;;;12.63;;
151;SDS011;68;48.792;9.164;2023-08-31T13:55:18;28.87;;;8.13;;
151;SDS011;68;48.792;9.164;2023-08-31T13:57:47;28.83;;;10.60;;
151;SDS011;68;48.792;9.164;2023-08-31T14:00:14;27.10;;;11.00;;
151;SDS011;68;48.792;9.164;2023-08-31T14:02:42;33.67;;;12.07;;
151;SDS011;68;48.792;9.164;2023-08-31T14:05:09;33.07;;;11.77;;
151;SDS011;68;48.792;9.164;2023-08-31T14:07:36;28.63;;;13.20;;
151;SDS011;68;48.792;9.164;2023-08-31T14:10:03;29.47;;;12.20;;
151;SDS011;68;48.792;9.164;2023-08-31T14:12:31;30.90;;;13.20;;
151;SDS011;68;48.792;9.164;2023-08-31T14:14:59;27.73;;;12.03;;
151;SDS011;68;48.792;9.164;2023-08-31T14:17:29;28.77;;;12.73;;
151;SDS011;68;48.792;9.164;2023-08-31T14:19:58;27.00;;;11.17;;
151;SDS011;68;48.792;9.164;2023-08-31T14:22:25;28.97;;;11.57;;
151;SDS011;68;48.792;9.164;2023-08-31T14:24:53;27.27;;;10.67;;
151;SDS011;68;48.792;9.164;2023-08-31T14:27:20;33.53;;;14.10;;
151;SDS011;68;48.792;9.164;2023-08-31T14:29:48;28.80;;;12.73;;
151;SDS011;68;48.792;9.164;2023-08-31T14:32:16;31.50;;;14.03;;
151;SDS011;68;48.792;9.164;2023-08-31T14:34:43;31.77;;;13.20;;
151;SDS011;68;48.792;9.164;2023-08-31T14:37:09;27.43;;;13.37;;
151;SDS011;68;48.792;9.164;2023-08-31T14:39:36;29.30;;;13.40;;
151;SDS011;68;48.792;9.164;2023-08-31T14:42:03;26.20;;;12.30;;
151;SDS011;68;48.792;9.164;2023-08-31T14:44:30;28.90;;;11.40;;
151;SDS011;68;48.792;9.164;2023-08-31T14:46:57;28.87;;;13.30;;
151;SDS011;68;48.792;9.164;2023-08-31T14:49:25;30.43;;;13.70;;
151;SDS011;68;48.792;9.164;2023-08-31T14:51:52;29.40;;;12.10;;
151;SDS011;68;48.792;9.164;2023-08-31T14:54:19;30.47;;;14.60;;
151;SDS011;68;48.792;9.164;2023-08-31T14:56:47;33.33;;;15.87;;
151;SDS011;68;48.792;9.164;2023-08-31T14:59:14;31.03;;;16.50;;
151;SDS011;68;48.792;9.164;2023-08-31T15:01:41;28.97;;;12.70;;
151;SDS011;68;48.792;9.164;2023-08-31T15:04:07;31.27;;;12.30;;
151;SDS011;68;48.792;9.164;2023-08-31T15:06:36;29.37;;;13.20;;
151;SDS011;68;48.792;9.164;2023-08-31T15:09:03;32.30;;;14.03;;
151;SDS011;68;48.792;9.164;2023-08-31T15:11:31;27.93;;;12.87;;
151;SDS011;68;48.792;9.164;2023-08-31T15:13:58;30.07;;;12.47;;
151;SDS011;68;48.792;9.164;2023-08-31T15:16:25;28.27;;;12.57;;
151;SDS011;68;48.792;9.164;2023-08-31T15:18:53;30.80;;;13.17;;
151;SDS011;68;48.792;9.164;2023-08-31T15:21:20;28.10;;;12.43;;
151;SDS011;68;48.792;9.164;2023-08-31T15:23:48;27.53;;;11.83;;
151;SDS011;68;48.792;9.164;2023-08-31T15:26:15;27.90;;;12.47;;
151;SDS011;68;48.792;9.164;2023-08-31T15:28:42;28.10;;;11.00;;
151;SDS011;68;48.792;9.164;2023-08-31T15:31:11;31.80;;;14.10;;
151;SDS011;68;48.792;9.164;2023-08-31T15:33:38;33.43;;;15.30;;
151;SDS011;68;48.792;9.164;2023-08-31T15:36:05;29.47;;;13.17;;
151;SDS011;68;48.792;9.164;2023-08-31T15:38:33;31.30;;;14.00;;